Sauk Centre, MN (56378)

1:43 AM CST on November 23, 2014 (GMT -0600)
Sauk Centre | Change Station
CLOSE
Current Station
Airport
Location: Sauk Centre,
Elevation: 1240 ft
Nearby Weather Stations
Active Advisory: Dense Fog Advisory

Elev 1240 ft 45.71 °N, 94.93 °W | Updated 10 minutes ago

Overcast
Overcast
34 °F
Feels Like 28 °F
N
7
Wind Variable Wind from South

Today
High -- | Low -- °F
--% Chance of Precip.
Yesterday
High -- | Low -- °F
Precip. -- in
7:30 AM 4:42 PM
New Moon, 1% visible
Pressure 29.41 in
Visibility 3.0 miles
Clouds Scattered Clouds 200 ft
Overcast 12000 ft
Windchill 28 °F
Dew Point 34 °F
Humidity 100%
Rainfall 0.00 in
Snow Depth Not available.
UV 0 out of 12
Pollen .10 out of 12
Air Quality Not available.
Flu Activity Not available.
METAR KD39 230733Z AUTO 17006KT 3SM BR SCT002 OVC120 01/01 A2941 RMK AO2 T00130013

More Conditions Fewer Conditions

Pressure 29.41 in
Visibility 3.0 miles
Clouds Scattered Clouds 200 ft
Overcast 12000 ft
Windchill 28 °F
Dew Point 34 °F
Humidity 100%
Rainfall 0.00 in
Snow Depth Not available.
UV 0 out of 12
Pollen .10 out of 12
Air Quality Not available.
Flu Activity Not available.
METAR KD39 230733Z AUTO 17006KT 3SM BR SCT002 OVC120 01/01 A2941 RMK AO2 T00130013

More Conditions Fewer Conditions

10-Day Weather Forecast

Almanac

Astronomy

Nov. 23, 2014 Rise Set
Actual Time
Civil Twilight
Nautical Twilight
Astronomical Twilight
Moon
Length of Visible Light
Length of Day
Tomorrow will be .
, % of the Moon is Illuminated

Today's Extremes

State Highs State Lows

Community

WunderPhotos

Upload Photos

1,773,024 photos uploaded!

WunderBlogs® & News

Nearby

Air Quality

  Air Quality AQ Index Pollutant
Not available.

Snow Depth

Station Depth Elevation

Earthquake Activity

City Distance Mag. Time & Date
Minimum magnitude displayed is 2.5.

Coastal Water Temperatures

Place Temperature

Nearby Weather Stations